Huntingdon, Canada
Current Conditions -  °F | °C
As of 4:12 PM on Sunday 21 Dec 2014 (Local Time) from CYUL Reporting Station
Light Snow Light Snow  
Wind Chill: 11°   Ceiling: 2400
Heat Index: 18°   Visibility: 8mi
Dew Point: 14°   Wind: 5mph
Humidity: 86%   Direction: 80°E
Pressure: 30.38"   Gusts: NA
Location:  45.08°N, 74.18°W
Report Text: CYUL 212112Z 08004KT 8SM -SN FEW012 OVC024 M08/M10 A3038 RMK SF2SC6 SLP291
Loading
Personal Weather Stations






























Interactive Weather Map New forecast layout! Learn more

10-Day Weather Forecast

Advertisements
Track Severe Weather on mobile